createdAt,value
2022-12-19T00:01:16.458Z,-3.60
2022-12-19T00:02:18.393Z,-3.56
2022-12-19T00:03:20.452Z,-3.53
2022-12-19T00:04:22.286Z,-3.54
2022-12-19T00:05:24.048Z,-3.53
2022-12-19T00:06:28.958Z,-3.50
2022-12-19T00:07:30.718Z,-3.47
2022-12-19T00:08:34.223Z,-3.45
2022-12-19T00:09:36.020Z,-3.43
2022-12-19T00:10:37.756Z,-3.41
2022-12-19T00:11:40.368Z,-3.39
2022-12-19T00:12:42.146Z,-3.43
2022-12-19T00:13:44.207Z,-3.44
2022-12-19T00:14:47.218Z,-3.44
2022-12-19T00:15:48.991Z,-3.45
2022-12-19T00:16:50.812Z,-3.46
2022-12-19T00:17:53.057Z,-3.48
2022-12-19T00:18:55.879Z,-3.60
2022-12-19T00:19:57.687Z,-3.62
2022-12-19T00:21:02.188Z,-3.58
2022-12-19T00:22:08.276Z,-3.53
2022-12-19T00:23:12.818Z,-3.54
2022-12-19T00:24:20.711Z,-3.53
2022-12-19T00:25:23.626Z,-3.54
2022-12-19T00:26:27.253Z,-3.55
2022-12-19T00:27:29.018Z,-3.61
2022-12-19T00:28:30.806Z,-3.63
2022-12-19T00:29:32.580Z,-3.62
2022-12-19T00:30:34.925Z,-3.62
2022-12-19T00:31:36.985Z,-3.63
2022-12-19T00:32:38.916Z,-3.64
2022-12-19T00:33:43.459Z,-3.61
2022-12-19T00:34:46.227Z,-3.62
2022-12-19T00:35:47.990Z,-3.58
2022-12-19T00:36:49.736Z,-3.63
2022-12-19T00:37:51.489Z,-3.64
2022-12-19T00:38:54.820Z,-3.63
2022-12-19T00:39:56.648Z,-3.64
2022-12-19T00:41:07.617Z,-3.70
2022-12-19T00:42:09.363Z,-3.70
2022-12-19T00:43:11.110Z,-3.67
2022-12-19T00:44:13.890Z,-3.67
2022-12-19T00:45:17.308Z,-3.66
2022-12-19T00:46:19.239Z,-3.69
2022-12-19T00:47:20.971Z,-3.65
2022-12-19T00:48:22.904Z,-3.68
2022-12-19T00:49:24.718Z,-3.69
2022-12-19T00:50:26.609Z,-3.71
2022-12-19T00:51:29.238Z,-3.71
2022-12-19T00:52:31.013Z,-3.73
2022-12-19T00:53:34.976Z,-3.72
2022-12-19T00:54:36.824Z,-3.74
2022-12-19T00:55:39.350Z,-3.70
2022-12-19T00:56:41.126Z,-3.66
2022-12-19T00:57:42.938Z,-3.65
2022-12-19T00:58:47.011Z,-3.62
2022-12-19T00:59:49.268Z,-3.59
2022-12-19T01:00:51.117Z,-3.57
2022-12-19T01:01:53.053Z,-3.52
2022-12-19T01:02:54.980Z,-3.55
2022-12-19T01:04:27.341Z,-3.53
2022-12-19T01:05:20.998Z,-3.47
2022-12-19T01:06:22.966Z,-3.46
2022-12-19T01:07:25.153Z,-3.42
2022-12-19T01:08:27.096Z,-3.40
2022-12-19T01:09:29.378Z,-3.38
2022-12-19T01:10:31.160Z,-3.33
2022-12-19T01:11:51.591Z,-3.36
2022-12-19T01:12:53.372Z,-3.37
2022-12-19T01:13:55.173Z,-3.36
2022-12-19T01:15:04.568Z,-3.42
2022-12-19T01:16:08.492Z,-3.47
2022-12-19T01:17:10.476Z,-3.47
2022-12-19T01:18:12.541Z,-3.48
2022-12-19T01:19:15.498Z,-3.47
2022-12-19T01:20:21.365Z,-3.51
2022-12-19T01:21:31.603Z,-3.51
2022-12-19T01:22:33.449Z,-3.47
2022-12-19T01:23:36.195Z,-3.46
2022-12-19T01:24:37.968Z,-3.44
2022-12-19T01:25:40.176Z,-3.40
2022-12-19T01:26:46.442Z,-3.35
2022-12-19T01:27:48.235Z,-3.31
2022-12-19T01:28:50.097Z,-3.30
2022-12-19T01:29:53.019Z,-3.28
2022-12-19T01:30:55.256Z,-3.31
2022-12-19T01:31:57.100Z,-3.31
2022-12-19T01:32:59.544Z,-3.35
2022-12-19T01:34:01.430Z,-3.32
2022-12-19T01:35:03.749Z,-3.30
2022-12-19T01:36:07.960Z,-3.31
2022-12-19T01:37:09.716Z,-3.35
2022-12-19T01:38:15.594Z,-3.35
2022-12-19T01:39:17.380Z,-3.34
2022-12-19T01:40:20.216Z,-3.34
2022-12-19T01:41:22.036Z,-3.32
2022-12-19T01:42:24.281Z,-3.31
2022-12-19T01:43:28.925Z,-3.27
2022-12-19T01:44:32.051Z,-3.25
2022-12-19T01:45:36.681Z,-3.23
2022-12-19T01:46:52.087Z,-3.23
2022-12-19T01:48:01.557Z,-3.23
2022-12-19T01:49:04.572Z,-3.23
2022-12-19T01:50:06.603Z,-3.21
2022-12-19T01:51:13.312Z,-3.21
2022-12-19T01:52:20.778Z,-3.23
2022-12-19T01:53:28.171Z,-3.23
2022-12-19T01:54:35.124Z,-3.24
2022-12-19T01:55:37.552Z,-3.28
2022-12-19T01:56:40.807Z,-3.24
2022-12-19T01:57:42.690Z,-3.23
2022-12-19T01:58:47.953Z,-3.23
2022-12-19T01:59:52.830Z,-3.19
2022-12-19T02:00:55.134Z,-3.15
2022-12-19T02:02:00.108Z,-3.12
2022-12-19T02:03:28.083Z,-3.11
2022-12-19T02:04:32.005Z,-3.10
2022-12-19T02:05:34.431Z,-3.08
2022-12-19T02:06:36.490Z,-3.10
2022-12-19T02:07:38.914Z,-3.11
2022-12-19T02:08:41.642Z,-3.11
2022-12-19T02:09:47.233Z,-3.07
2022-12-19T02:10:52.519Z,-3.06
2022-12-19T02:11:54.682Z,-3.02
2022-12-19T02:12:56.622Z,-3.00
2022-12-19T02:13:58.483Z,-2.98
2022-12-19T02:15:03.078Z,-2.96
2022-12-19T02:16:16.908Z,-2.91
2022-12-19T02:17:26.965Z,-2.87
2022-12-19T02:18:31.817Z,-2.87
2022-12-19T02:19:48.817Z,-2.83
2022-12-19T02:21:16.785Z,-2.79
2022-12-19T02:22:27.391Z,-2.76
2022-12-19T02:23:56.331Z,-2.78
2022-12-19T02:24:58.163Z,-2.79
2022-12-19T02:25:59.887Z,-2.85
2022-12-19T02:27:15.298Z,-2.90
2022-12-19T02:28:35.527Z,-2.87
2022-12-19T02:29:43.368Z,-2.84
2022-12-19T02:31:15.494Z,-2.85
2022-12-19T02:32:44.622Z,-2.89
2022-12-19T02:33:55.393Z,-2.87
2022-12-19T02:35:24.628Z,-2.84
2022-12-19T02:36:29.284Z,-2.79
2022-12-19T02:37:36.482Z,-2.77
2022-12-19T02:38:47.767Z,-2.72
2022-12-19T02:40:12.644Z,-2.66
2022-12-19T02:41:26.044Z,-2.63
2022-12-19T02:42:32.952Z,-2.60
2022-12-19T02:43:39.060Z,-2.60
2022-12-19T02:44:43.389Z,-2.60
2022-12-19T02:45:46.275Z,-2.60
2022-12-19T02:46:49.171Z,-2.59
2022-12-19T02:47:51.563Z,-2.60
2022-12-19T02:48:53.982Z,-2.58
2022-12-19T02:49:55.934Z,-2.55
2022-12-19T02:50:57.795Z,-2.56
2022-12-19T02:52:09.042Z,-2.57
2022-12-19T02:53:12.280Z,-2.66
2022-12-19T02:54:14.143Z,-2.70
2022-12-19T02:55:18.983Z,-2.71
2022-12-19T02:56:23.293Z,-2.73
2022-12-19T02:57:28.799Z,-2.72
2022-12-19T02:58:39.217Z,-2.68
2022-12-19T02:59:46.695Z,-2.64
2022-12-19T03:01:04.714Z,-2.63
2022-12-19T03:02:12.406Z,-2.61
2022-12-19T03:03:27.849Z,-2.57
2022-12-19T03:04:29.905Z,-2.57
2022-12-19T03:05:31.772Z,-2.57
2022-12-19T03:06:39.635Z,-2.58
2022-12-19T03:08:11.025Z,-2.58
2022-12-19T03:09:24.838Z,-2.55
2022-12-19T03:10:36.385Z,-2.51
2022-12-19T03:11:39.361Z,-2.48
2022-12-19T03:12:46.538Z,-2.49
2022-12-19T03:13:55.050Z,-2.44
2022-12-19T03:14:58.343Z,-2.38
2022-12-19T03:16:00.319Z,-2.36
2022-12-19T03:17:03.456Z,-2.37
2022-12-19T03:18:05.469Z,-2.37
2022-12-19T03:19:12.040Z,-2.35
2022-12-19T03:20:32.752Z,-2.36
2022-12-19T03:21:40.431Z,-2.36
2022-12-19T03:22:42.263Z,-2.34
2022-12-19T03:23:45.022Z,-2.34
2022-12-19T03:24:47.358Z,-2.35
2022-12-19T03:25:52.514Z,-2.33
2022-12-19T03:27:08.982Z,-2.32
2022-12-19T03:28:19.499Z,-2.32
2022-12-19T03:29:21.283Z,-2.28
2022-12-19T03:30:23.487Z,-2.27
2022-12-19T03:31:27.222Z,-2.26
2022-12-19T03:32:30.238Z,-2.27
2022-12-19T03:33:33.393Z,-2.31
2022-12-19T03:34:51.045Z,-2.32
2022-12-19T03:35:53.610Z,-2.32
2022-12-19T03:37:01.631Z,-2.33
2022-12-19T03:38:04.907Z,-2.33
2022-12-19T03:39:09.147Z,-2.30
2022-12-19T03:40:16.294Z,-2.28
2022-12-19T03:41:39.185Z,-2.25
2022-12-19T03:43:00.527Z,-2.23
2022-12-19T03:44:02.531Z,-2.18
2022-12-19T03:45:05.848Z,-2.17
2022-12-19T03:46:23.133Z,-2.15
2022-12-19T03:47:30.506Z,-2.11
2022-12-19T03:48:44.389Z,-2.12
2022-12-19T03:49:46.781Z,-2.14
2022-12-19T03:50:55.034Z,-2.15
2022-12-19T03:52:17.105Z,-2.19
2022-12-19T03:53:37.332Z,-2.19
2022-12-19T03:54:44.474Z,-2.16
2022-12-19T03:55:49.004Z,-2.12
2022-12-19T03:56:56.906Z,-2.10
2022-12-19T03:58:04.038Z,-2.13
2022-12-19T03:59:12.483Z,-2.10
2022-12-19T04:00:16.494Z,-2.12
2022-12-19T04:01:19.587Z,-2.11
2022-12-19T04:02:23.669Z,-2.13
2022-12-19T04:03:26.443Z,-2.16
2022-12-19T04:04:29.019Z,-2.16
2022-12-19T04:05:31.746Z,-2.14
2022-12-19T04:06:34.754Z,-2.16
2022-12-19T04:07:37.419Z,-2.14
2022-12-19T04:08:39.434Z,-2.12
2022-12-19T04:09:42.522Z,-2.12
2022-12-19T04:10:47.713Z,-2.10
2022-12-19T04:11:55.263Z,-2.07
2022-12-19T04:13:12.189Z,-2.05
2022-12-19T04:14:20.325Z,-2.04
2022-12-19T04:15:29.974Z,-2.02
2022-12-19T04:16:52.347Z,-2.02
2022-12-19T04:17:57.810Z,-2.04
2022-12-19T04:19:03.347Z,-2.09
2022-12-19T04:20:08.002Z,-2.08
2022-12-19T04:21:14.181Z,-2.10
2022-12-19T04:22:25.779Z,-2.08
2022-12-19T04:23:31.498Z,-2.05
2022-12-19T04:24:37.964Z,-2.04
2022-12-19T04:25:42.011Z,-2.02
2022-12-19T04:26:46.511Z,-1.99
2022-12-19T04:27:54.000Z,-1.95
2022-12-19T04:28:58.100Z,-1.96
2022-12-19T04:30:01.449Z,-1.97
2022-12-19T04:31:04.394Z,-2.01
2022-12-19T04:32:06.987Z,-2.03
2022-12-19T04:33:08.823Z,-2.05
2022-12-19T04:34:10.803Z,-2.04
2022-12-19T04:35:13.180Z,-2.02
2022-12-19T04:36:15.094Z,-1.98
2022-12-19T04:37:17.022Z,-1.93
2022-12-19T04:38:19.050Z,-1.90
2022-12-19T04:39:20.863Z,-1.90
2022-12-19T04:40:22.698Z,-1.91
2022-12-19T04:41:24.418Z,-1.91
2022-12-19T04:42:26.259Z,-1.91
2022-12-19T04:43:28.137Z,-1.91
2022-12-19T04:44:29.969Z,-1.92
2022-12-19T04:45:32.889Z,-1.90
2022-12-19T04:46:35.447Z,-1.91
2022-12-19T04:47:37.379Z,-1.92
2022-12-19T04:48:39.379Z,-1.91
2022-12-19T04:49:41.285Z,-1.91
2022-12-19T04:50:43.079Z,-1.91
2022-12-19T04:51:44.891Z,-1.93
2022-12-19T04:52:46.739Z,-1.92
2022-12-19T04:53:48.546Z,-1.90
2022-12-19T04:54:50.350Z,-1.90
2022-12-19T04:55:59.910Z,-1.86
2022-12-19T04:57:01.729Z,-1.86
2022-12-19T04:58:06.973Z,-1.87
2022-12-19T04:59:08.879Z,-1.90
2022-12-19T05:00:11.641Z,-1.89
2022-12-19T05:01:14.606Z,-1.88
2022-12-19T05:02:16.618Z,-1.87
2022-12-19T05:03:18.508Z,-1.85
2022-12-19T05:04:20.486Z,-1.83
2022-12-19T05:05:22.348Z,-1.82
2022-12-19T05:06:24.160Z,-1.82
2022-12-19T05:07:25.945Z,-1.81
2022-12-19T05:08:27.726Z,-1.81
2022-12-19T05:09:30.650Z,-1.83
2022-12-19T05:10:32.452Z,-1.85
2022-12-19T05:11:34.249Z,-1.84
2022-12-19T05:12:36.047Z,-1.83
2022-12-19T05:13:38.017Z,-1.83
2022-12-19T05:14:39.937Z,-1.82
2022-12-19T05:15:41.794Z,-1.79
2022-12-19T05:16:43.819Z,-1.77
2022-12-19T05:17:45.635Z,-1.81
2022-12-19T05:18:47.506Z,-1.83
2022-12-19T05:19:49.353Z,-1.82
2022-12-19T05:20:51.187Z,-1.82
2022-12-19T05:21:53.073Z,-1.83
2022-12-19T05:22:54.858Z,-1.83
2022-12-19T05:23:56.964Z,-1.82
2022-12-19T05:24:58.771Z,-1.83
2022-12-19T05:26:01.752Z,-1.84
2022-12-19T05:27:03.545Z,-1.82
2022-12-19T05:28:05.302Z,-1.84
2022-12-19T05:29:07.946Z,-1.87
2022-12-19T05:30:10.156Z,-1.87
2022-12-19T05:31:13.573Z,-1.82
2022-12-19T05:32:15.407Z,-1.78
2022-12-19T05:33:17.195Z,-1.74
2022-12-19T05:34:19.064Z,-1.73
2022-12-19T05:35:20.872Z,-1.71
2022-12-19T05:36:25.451Z,-1.70
2022-12-19T05:37:30.905Z,-1.71
2022-12-19T05:38:32.711Z,-1.71
2022-12-19T05:39:35.297Z,-1.72
2022-12-19T05:40:37.135Z,-1.72
2022-12-19T05:41:39.415Z,-1.73
2022-12-19T05:42:41.216Z,-1.76
2022-12-19T05:43:43.446Z,-1.76
2022-12-19T05:44:45.260Z,-1.74
2022-12-19T05:45:47.160Z,-1.77
2022-12-19T05:46:48.955Z,-1.75
2022-12-19T05:47:50.850Z,-1.74
2022-12-19T05:48:52.676Z,-1.75
2022-12-19T05:49:54.677Z,-1.77
2022-12-19T05:50:56.454Z,-1.77
2022-12-19T05:51:58.269Z,-1.77
2022-12-19T05:53:01.101Z,-1.72
2022-12-19T05:54:02.938Z,-1.71
2022-12-19T05:55:05.689Z,-1.68
2022-12-19T05:56:09.200Z,-1.69
2022-12-19T05:57:12.302Z,-1.71
2022-12-19T05:58:14.201Z,-1.68
2022-12-19T05:59:16.631Z,-1.67
2022-12-19T06:00:18.664Z,-1.63
2022-12-19T06:01:21.882Z,-1.61
2022-12-19T06:02:24.060Z,-1.59
2022-12-19T06:03:25.959Z,-1.56
2022-12-19T06:04:27.829Z,-1.51
2022-12-19T06:05:31.705Z,-1.50
2022-12-19T06:06:33.547Z,-1.47
2022-12-19T06:07:35.426Z,-1.44
2022-12-19T06:08:37.922Z,-1.44
2022-12-19T06:09:39.753Z,-1.43
2022-12-19T06:10:41.615Z,-1.42
2022-12-19T06:11:43.418Z,-1.43
2022-12-19T06:12:45.323Z,-1.44
2022-12-19T06:13:47.264Z,-1.47
2022-12-19T06:14:49.056Z,-1.43
2022-12-19T06:15:50.890Z,-1.43
2022-12-19T06:16:52.649Z,-1.42
2022-12-19T06:17:54.906Z,-1.43
2022-12-19T06:18:56.732Z,-1.42
2022-12-19T06:19:58.517Z,-1.42
2022-12-19T06:21:01.437Z,-1.39
2022-12-19T06:22:03.161Z,-1.37
2022-12-19T06:23:05.011Z,-1.37
2022-12-19T06:24:06.915Z,-1.34
2022-12-19T06:25:09.771Z,-1.33
2022-12-19T06:26:18.681Z,-1.32
2022-12-19T06:27:21.542Z,-1.34
2022-12-19T06:28:23.925Z,-1.33
2022-12-19T06:29:25.756Z,-1.33
2022-12-19T06:30:27.559Z,-1.34
2022-12-19T06:31:29.432Z,-1.37
2022-12-19T06:32:34.806Z,-1.36
2022-12-19T06:33:39.663Z,-1.37
2022-12-19T06:35:03.603Z,-1.38
2022-12-19T06:36:04.648Z,-1.35
2022-12-19T06:37:08.244Z,-1.32
2022-12-19T06:38:10.326Z,-1.32
2022-12-19T06:39:14.007Z,-1.31
2022-12-19T06:40:36.180Z,-1.34
2022-12-19T06:41:56.596Z,-1.36
2022-12-19T06:42:58.445Z,-1.37
2022-12-19T06:44:00.928Z,-1.41
2022-12-19T06:45:02.816Z,-1.38
2022-12-19T06:46:05.147Z,-1.39
2022-12-19T06:47:06.908Z,-1.39
2022-12-19T06:48:08.648Z,-1.39
2022-12-19T06:49:11.275Z,-1.39
2022-12-19T06:50:14.111Z,-1.38
2022-12-19T06:51:15.905Z,-1.37
2022-12-19T06:52:18.235Z,-1.33
2022-12-19T06:53:20.183Z,-1.32
2022-12-19T06:54:22.141Z,-1.31
2022-12-19T06:55:23.884Z,-1.30
2022-12-19T06:56:25.770Z,-1.26
2022-12-19T06:57:27.573Z,-1.28
2022-12-19T06:58:29.385Z,-1.25
2022-12-19T06:59:32.720Z,-1.28
2022-12-19T07:00:37.434Z,-1.27
2022-12-19T07:01:39.451Z,-1.25
2022-12-19T07:02:46.040Z,-1.25
2022-12-19T07:03:48.951Z,-1.24
2022-12-19T07:04:52.743Z,-1.23
2022-12-19T07:05:54.699Z,-1.21
2022-12-19T07:06:58.714Z,-1.18
2022-12-19T07:08:00.857Z,-1.16
2022-12-19T07:09:02.736Z,-1.16
2022-12-19T07:10:05.324Z,-1.19
2022-12-19T07:11:07.162Z,-1.20
2022-12-19T07:12:09.265Z,-1.17
2022-12-19T07:13:11.062Z,-1.13
2022-12-19T07:14:12.910Z,-1.09
2022-12-19T07:15:14.851Z,-1.09
2022-12-19T07:16:16.742Z,-1.11
2022-12-19T07:17:19.545Z,-1.12
2022-12-19T07:18:21.346Z,-1.13
2022-12-19T07:19:23.198Z,-1.09
2022-12-19T07:20:25.097Z,-1.06
2022-12-19T07:21:27.362Z,-1.04
2022-12-19T07:22:31.525Z,-1.03
2022-12-19T07:23:34.269Z,-1.05
2022-12-19T07:24:36.798Z,-1.07
2022-12-19T07:25:39.807Z,-1.07
2022-12-19T07:26:42.763Z,-1.09
2022-12-19T07:27:44.994Z,-1.07
2022-12-19T07:28:46.916Z,-1.07
2022-12-19T07:29:48.887Z,-1.08
2022-12-19T07:30:50.650Z,-1.07
2022-12-19T07:31:52.565Z,-1.05
2022-12-19T07:32:54.435Z,-1.05
2022-12-19T07:33:56.344Z,-1.01
2022-12-19T07:34:58.039Z,-0.97
2022-12-19T07:35:59.829Z,-0.94
2022-12-19T07:37:01.602Z,-0.93
2022-12-19T07:38:04.559Z,-0.90
2022-12-19T07:39:06.510Z,-0.88
2022-12-19T07:40:08.549Z,-0.88
2022-12-19T07:41:10.391Z,-0.90
2022-12-19T07:42:12.190Z,-1.01
2022-12-19T07:43:14.033Z,-1.07
2022-12-19T07:44:17.864Z,-1.08
2022-12-19T07:45:20.052Z,-1.11
2022-12-19T07:46:22.315Z,-1.13
2022-12-19T07:47:24.156Z,-1.14
2022-12-19T07:48:26.033Z,-1.15
2022-12-19T07:49:27.778Z,-1.21
2022-12-19T07:50:30.389Z,-1.20
2022-12-19T07:51:32.376Z,-1.19
2022-12-19T07:52:34.156Z,-1.15
2022-12-19T07:53:36.036Z,-1.09
2022-12-19T07:54:37.812Z,-1.04
2022-12-19T07:55:39.529Z,-1.03
2022-12-19T07:56:41.406Z,-1.00
2022-12-19T07:57:43.189Z,-1.03
2022-12-19T07:58:45.101Z,-1.04
2022-12-19T07:59:47.029Z,-1.05
2022-12-19T08:00:56.457Z,-1.01
2022-12-19T08:01:58.433Z,-0.97
2022-12-19T08:03:01.512Z,-0.95
2022-12-19T08:04:03.826Z,-0.98
2022-12-19T08:05:06.215Z,-0.98
2022-12-19T08:06:08.111Z,-1.00
2022-12-19T08:07:09.919Z,-1.02
2022-12-19T08:08:12.150Z,-1.02
2022-12-19T08:09:18.914Z,-1.05
2022-12-19T08:10:26.069Z,-1.05
2022-12-19T08:11:29.691Z,-1.03
2022-12-19T08:12:33.673Z,-0.98
2022-12-19T08:13:39.607Z,-0.97
2022-12-19T08:14:42.887Z,-0.97
2022-12-19T08:15:45.887Z,-0.97
2022-12-19T08:17:18.622Z,-0.94
2022-12-19T08:18:09.347Z,-0.89
2022-12-19T08:19:11.316Z,-0.85
2022-12-19T08:20:13.771Z,-0.82
2022-12-19T08:21:15.647Z,-0.79
2022-12-19T08:22:17.408Z,-0.79
2022-12-19T08:23:19.373Z,-0.77
2022-12-19T08:24:21.145Z,-0.75
2022-12-19T08:25:23.036Z,-0.74
2022-12-19T08:26:29.118Z,-0.75
2022-12-19T08:27:35.157Z,-0.76
2022-12-19T08:28:37.558Z,-0.76
2022-12-19T08:29:39.433Z,-0.76
2022-12-19T08:30:41.905Z,-0.76
2022-12-19T08:31:43.875Z,-0.74
2022-12-19T08:32:46.074Z,-0.78
2022-12-19T08:33:48.035Z,-0.78
2022-12-19T08:34:50.366Z,-0.78
2022-12-19T08:35:52.951Z,-0.78
2022-12-19T08:36:54.742Z,-0.76
2022-12-19T08:37:56.531Z,-0.75
2022-12-19T08:38:58.388Z,-0.74
2022-12-19T08:40:01.459Z,-0.73
2022-12-19T08:41:03.552Z,-0.72
2022-12-19T08:42:05.363Z,-0.68
2022-12-19T08:43:07.115Z,-0.67
2022-12-19T08:44:11.456Z,-0.67
2022-12-19T08:45:13.258Z,-0.66
2022-12-19T08:46:15.197Z,-0.64
2022-12-19T08:47:17.022Z,-0.68
2022-12-19T08:48:18.970Z,-0.67
2022-12-19T08:49:20.859Z,-0.70
2022-12-19T08:50:22.659Z,-0.74
2022-12-19T08:51:24.729Z,-0.75
2022-12-19T08:52:26.520Z,-0.76
2022-12-19T08:53:29.816Z,-0.73
2022-12-19T08:54:31.655Z,-0.74
2022-12-19T08:55:35.623Z,-0.76
2022-12-19T08:56:37.494Z,-0.79
2022-12-19T08:57:48.615Z,-0.82
2022-12-19T08:58:56.341Z,-0.85
2022-12-19T08:59:58.118Z,-0.85
2022-12-19T09:01:05.302Z,-0.85
2022-12-19T09:02:07.977Z,-0.84
2022-12-19T09:03:09.873Z,-0.85
2022-12-19T09:05:02.835Z,-0.81
2022-12-19T09:06:01.224Z,-0.78
2022-12-19T09:06:57.678Z,-0.75
2022-12-19T09:07:59.484Z,-0.71
2022-12-19T09:09:01.428Z,-0.64
2022-12-19T09:10:03.668Z,-0.58
2022-12-19T09:11:09.883Z,-0.62
2022-12-19T09:12:12.666Z,-0.62
2022-12-19T09:13:14.523Z,-0.64
2022-12-19T09:14:21.429Z,-0.66
2022-12-19T09:15:23.636Z,-0.72
2022-12-19T09:16:26.865Z,-0.76
2022-12-19T09:17:28.742Z,-0.78
2022-12-19T09:18:32.406Z,-0.77
2022-12-19T09:19:34.230Z,-0.74
2022-12-19T09:20:36.080Z,-0.74
2022-12-19T09:21:37.891Z,-0.69
2022-12-19T09:22:39.604Z,-0.61
2022-12-19T09:23:43.051Z,-0.50
2022-12-19T09:24:47.926Z,-0.42
2022-12-19T09:25:49.805Z,-0.36
2022-12-19T09:26:51.597Z,-0.28
2022-12-19T09:28:26.438Z,-0.17
2022-12-19T09:29:20.570Z,-0.09
2022-12-19T09:30:23.390Z,-0.01
2022-12-19T09:31:25.758Z,0.02
2022-12-19T09:32:27.640Z,0.09
2022-12-19T09:33:29.793Z,0.10
2022-12-19T09:34:37.034Z,0.16
2022-12-19T09:35:40.452Z,0.24
2022-12-19T09:36:42.257Z,0.30
2022-12-19T09:37:44.023Z,0.28
2022-12-19T09:38:46.173Z,0.27
2022-12-19T09:39:50.034Z,0.27
2022-12-19T09:41:00.977Z,0.32
2022-12-19T09:42:02.839Z,0.36
2022-12-19T09:43:11.124Z,0.41
2022-12-19T09:44:12.972Z,0.48
2022-12-19T09:45:31.302Z,0.53
2022-12-19T09:46:44.218Z,0.59
2022-12-19T09:47:49.211Z,0.62
2022-12-19T09:48:55.199Z,0.62
2022-12-19T09:49:58.011Z,0.64
2022-12-19T09:51:18.097Z,0.66
2022-12-19T09:52:22.630Z,0.67
2022-12-19T09:53:33.497Z,0.71
2022-12-19T09:54:37.349Z,0.76
2022-12-19T09:55:41.661Z,0.71
2022-12-19T09:56:46.296Z,0.75
2022-12-19T09:58:00.351Z,0.74
2022-12-19T09:59:31.736Z,0.76
2022-12-19T10:00:44.860Z,0.78
2022-12-19T10:01:54.387Z,0.81
2022-12-19T10:03:22.621Z,0.86
2022-12-19T10:04:26.869Z,0.88
2022-12-19T10:06:00.421Z,0.86
2022-12-19T10:07:21.261Z,0.87
2022-12-19T10:08:17.948Z,0.89
2022-12-19T10:11:40.853Z,0.91
2022-12-19T10:12:38.461Z,0.90
2022-12-19T10:12:45.483Z,0.92
2022-12-19T10:13:35.707Z,0.95
2022-12-19T10:14:46.773Z,0.97
2022-12-19T10:15:59.050Z,0.99
2022-12-19T10:17:24.190Z,1.03
2022-12-19T10:18:29.510Z,1.08
2022-12-19T10:19:38.717Z,1.10
2022-12-19T10:20:42.828Z,1.09
2022-12-19T10:22:18.165Z,1.11
2022-12-19T10:23:20.055Z,1.13
2022-12-19T10:24:34.804Z,1.15
2022-12-19T10:25:59.936Z,1.13
2022-12-19T10:27:05.505Z,1.12
2022-12-19T10:28:07.288Z,1.15
2022-12-19T10:29:12.054Z,1.16
2022-12-19T10:30:15.460Z,1.16
2022-12-19T10:31:21.552Z,1.20
2022-12-19T10:32:41.120Z,1.21
2022-12-19T10:33:47.322Z,1.21
2022-12-19T10:34:51.117Z,1.24
2022-12-19T10:35:54.485Z,1.24
2022-12-19T10:37:28.708Z,1.23
2022-12-19T10:38:30.033Z,1.24
2022-12-19T10:39:36.416Z,1.27
2022-12-19T10:40:58.543Z,1.29
2022-12-19T10:42:08.520Z,1.31
2022-12-19T10:43:22.898Z,1.32
2022-12-19T10:44:35.374Z,1.32
2022-12-19T10:45:50.347Z,1.32
2022-12-19T10:46:53.581Z,1.34
2022-12-19T10:47:57.065Z,1.35
2022-12-19T10:49:02.727Z,1.36
2022-12-19T10:50:09.497Z,1.40
2022-12-19T10:51:19.415Z,1.42
2022-12-19T10:52:39.701Z,1.43
2022-12-19T10:53:41.526Z,1.44
2022-12-19T10:54:48.846Z,1.48
2022-12-19T10:55:51.877Z,1.50
2022-12-19T10:56:53.783Z,1.52
2022-12-19T10:57:58.468Z,1.54
2022-12-19T10:59:01.611Z,1.55
2022-12-19T11:00:15.953Z,1.57
2022-12-19T11:01:26.166Z,1.59
2022-12-19T11:02:37.305Z,1.61
2022-12-19T11:03:42.504Z,1.63
2022-12-19T11:04:47.723Z,1.66
2022-12-19T11:05:57.814Z,1.68
2022-12-19T11:07:03.780Z,1.71
2022-12-19T11:08:10.053Z,1.71
2022-12-19T11:09:18.341Z,1.72
2022-12-19T11:12:20.511Z,1.71
2022-12-19T11:15:27.100Z,1.74
2022-12-19T11:17:56.483Z,1.80
2022-12-19T11:18:10.777Z,1.76
2022-12-19T11:18:32.532Z,1.78
2022-12-19T11:23:50.585Z,1.83
2022-12-19T11:29:18.666Z,1.87
2022-12-19T11:29:39.845Z,1.87
2022-12-19T11:29:54.354Z,1.90
2022-12-19T11:30:08.659Z,1.95
2022-12-19T11:30:35.712Z,1.99
2022-12-19T11:30:35.951Z,1.93
2022-12-19T11:30:43.364Z,2.08
2022-12-19T11:31:51.081Z,2.11
2022-12-19T11:32:36.662Z,2.17
2022-12-19T11:33:26.034Z,2.22
2022-12-19T11:34:29.478Z,2.25
2022-12-19T11:35:36.555Z,2.28
2022-12-19T11:36:48.854Z,2.32
2022-12-19T11:37:55.345Z,2.35
2022-12-19T11:38:57.870Z,2.38
2022-12-19T11:40:05.195Z,2.42
2022-12-19T11:41:30.213Z,2.47
2022-12-19T11:42:44.446Z,2.52
2022-12-19T11:43:59.148Z,2.55
2022-12-19T11:45:01.547Z,2.57
2022-12-19T11:46:03.331Z,2.62
2022-12-19T11:47:25.551Z,2.65
2022-12-19T11:48:30.218Z,2.69
2022-12-19T11:49:43.981Z,2.72
2022-12-19T11:51:00.512Z,2.76
2022-12-19T11:52:06.860Z,2.77
2022-12-19T11:53:19.212Z,2.79
2022-12-19T11:54:24.450Z,2.80
2022-12-19T11:55:29.406Z,2.80
2022-12-19T11:56:31.272Z,2.81
2022-12-19T11:57:33.233Z,2.83
2022-12-19T11:58:35.096Z,2.85
2022-12-19T11:59:38.673Z,2.83
2022-12-19T12:00:46.434Z,2.80
2022-12-19T12:02:14.409Z,2.75
2022-12-19T12:03:27.282Z,2.70
2022-12-19T12:04:29.159Z,2.71
2022-12-19T12:05:36.746Z,2.71
2022-12-19T12:06:45.630Z,2.73
2022-12-19T12:09:56.052Z,2.73
2022-12-19T12:12:14.079Z,2.72
2022-12-19T12:18:36.758Z,2.76
2022-12-19T12:19:43.202Z,2.76
2022-12-19T12:24:14.148Z,2.76
2022-12-19T12:27:03.162Z,2.74
2022-12-19T12:31:04.353Z,2.75
2022-12-19T12:31:09.622Z,2.72
2022-12-19T12:31:13.894Z,2.74
2022-12-19T12:31:16.752Z,2.72
2022-12-19T12:31:26.820Z,2.78
2022-12-19T12:31:29.547Z,2.80
2022-12-19T12:31:39.144Z,2.80
2022-12-19T12:31:48.511Z,2.79
2022-12-19T12:32:03.188Z,2.80
2022-12-19T12:32:04.829Z,2.79
2022-12-19T12:35:35.106Z,2.77
2022-12-19T12:35:38.322Z,2.84
2022-12-19T12:35:51.342Z,2.80
2022-12-19T12:38:12.199Z,2.85
2022-12-19T12:39:24.253Z,2.80
2022-12-19T12:40:49.129Z,2.80
2022-12-19T12:42:06.222Z,2.84
2022-12-19T12:43:26.921Z,2.85
2022-12-19T12:44:33.298Z,2.83
2022-12-19T12:45:38.447Z,2.83
2022-12-19T12:46:42.994Z,2.85
2022-12-19T12:47:47.056Z,2.89
2022-12-19T12:48:56.226Z,2.91
2022-12-19T12:50:01.039Z,2.92
2022-12-19T12:51:03.613Z,2.92
2022-12-19T12:52:07.226Z,2.93
2022-12-19T12:53:11.236Z,2.94
2022-12-19T12:54:16.243Z,2.94
2022-12-19T12:55:25.392Z,2.94
2022-12-19T12:56:27.636Z,2.96
2022-12-19T12:57:29.967Z,2.96
2022-12-19T12:58:53.878Z,3.00
2022-12-19T13:00:14.920Z,3.02
2022-12-19T13:01:18.251Z,3.05
2022-12-19T13:02:25.709Z,3.09
2022-12-19T13:03:29.489Z,3.13
2022-12-19T13:04:33.573Z,3.18
2022-12-19T13:05:41.244Z,3.23
2022-12-19T13:06:50.555Z,3.25
2022-12-19T13:07:54.447Z,3.30
2022-12-19T13:09:02.760Z,3.35
2022-12-19T13:10:16.873Z,3.40
2022-12-19T13:11:38.531Z,3.42
2022-12-19T13:13:15.177Z,3.40
2022-12-19T13:14:34.251Z,3.43
2022-12-19T13:15:43.980Z,3.40
2022-12-19T13:16:45.884Z,3.39
2022-12-19T13:17:49.366Z,3.39
2022-12-19T13:19:04.632Z,3.37
2022-12-19T13:20:07.213Z,3.37
2022-12-19T13:21:09.901Z,3.36
2022-12-19T13:22:19.638Z,3.35
2022-12-19T13:23:47.571Z,3.33
2022-12-19T13:24:56.550Z,3.31
2022-12-19T13:25:58.516Z,3.32
2022-12-19T13:27:00.615Z,3.35
2022-12-19T13:28:02.432Z,3.36
2022-12-19T13:29:30.568Z,3.37
2022-12-19T13:30:45.867Z,3.38
2022-12-19T13:32:11.106Z,3.38
2022-12-19T13:33:12.929Z,3.38
2022-12-19T13:34:19.176Z,3.35
2022-12-19T13:39:46.989Z,3.34
2022-12-19T13:39:51.267Z,3.34
2022-12-19T13:39:57.011Z,3.33
2022-12-19T13:40:18.519Z,3.26
2022-12-19T13:41:48.378Z,3.28
2022-12-19T13:43:14.982Z,3.28
2022-12-19T13:44:22.917Z,3.28
2022-12-19T13:45:29.720Z,3.27
2022-12-19T13:46:43.083Z,3.29
2022-12-19T13:47:45.454Z,3.27
2022-12-19T13:48:48.619Z,3.27
2022-12-19T13:49:50.948Z,3.26
2022-12-19T13:50:53.528Z,3.23
2022-12-19T13:51:57.579Z,3.23
2022-12-19T13:52:59.577Z,3.22
2022-12-19T13:54:01.279Z,3.23
2022-12-19T13:55:03.712Z,3.25
2022-12-19T13:56:08.373Z,3.20
2022-12-19T13:57:22.200Z,3.20
2022-12-19T13:58:29.906Z,3.17
2022-12-19T13:59:34.254Z,3.18
2022-12-19T14:00:41.870Z,3.20
2022-12-19T14:01:44.037Z,3.18
2022-12-19T14:02:54.783Z,3.17
2022-12-19T14:04:07.970Z,3.17
2022-12-19T14:05:36.075Z,3.18
2022-12-19T14:06:52.841Z,3.13
2022-12-19T14:07:54.849Z,3.11
2022-12-19T14:11:24.848Z,3.04
2022-12-19T14:11:48.491Z,2.99
2022-12-19T14:13:37.828Z,2.99
2022-12-19T14:13:58.917Z,3.03
2022-12-19T14:15:14.865Z,3.02
2022-12-19T14:16:17.536Z,2.98
2022-12-19T14:17:20.774Z,2.96
2022-12-19T14:18:44.868Z,2.96
2022-12-19T14:19:49.770Z,2.97
2022-12-19T14:22:09.530Z,2.98
2022-12-19T14:22:25.807Z,2.97
2022-12-19T14:23:43.432Z,2.96
2022-12-19T14:25:33.367Z,2.94
2022-12-19T14:28:25.803Z,2.93
2022-12-19T14:28:26.430Z,2.91
2022-12-19T14:30:27.323Z,2.88
2022-12-19T14:31:00.997Z,2.88
2022-12-19T14:33:45.282Z,2.86
2022-12-19T14:33:47.186Z,2.83
2022-12-19T14:36:05.107Z,2.85
2022-12-19T14:36:25.773Z,2.83
2022-12-19T14:38:21.263Z,2.84
2022-12-19T14:39:22.475Z,2.83
2022-12-19T14:40:21.569Z,2.86